Main page
METAR-TAF:

Airports :

London-Luton, England

Luton Airport

latitude: 51-52N, longitude: 000-22W, elevation: 160 m

Current weather observation

The report was made 31 minutes ago, at 05:50 UTC
Wind 5 kt from the West
Temperature 0°C
Humidity 100%
Pressure 1003 hPa
Visibility 10 km or more

METAR: EGGW 110550Z AUTO 26005KT 9999 NCD M00/M00 Q1003

Time: 06:21 (06:21 UTC)

Forecast

The report was made 1 hour and 23 minutes ago, at 04:58 UTC
Forecast valid from 11 at 06 UTC to 12 at 06 UTC
Wind 5 kt from the West/Southwest
Visibility 10 km or more
Few clouds at a height of 3000 ft
Probability 30%
from 11 at 06 UTC to 11 at 10 UTC
Visibility: 7000 m
Temporary
from 11 at 23 UTC to 12 at 06 UTC
Broken clouds at a height of 800 ft
Probability 40% :
Temporary
from 11 at 23 UTC to 12 at 06 UTC
Visibility: 6000 m
Broken clouds at a height of 400 ft
rain showers

TAF: EGGW 110458Z 1106/1206 24005KT 9999 FEW030 PROB30 1106/1110 7000 TEMPO 1123/1206 BKN008 PROB40 TEMPO 1123/1206 6000 SHRA BKN004

METAR-TAF

Weather observations and forecasts of more than 4000 airports (METAR and TAF reports).

The available stations are represented by yellow and red dots on the map.

Hover mouse over dot to see the name of the station.

Then click to see weather observations and forecasts.

To change the map : click on the green buttons with a black cross to zoom in, on the green button with a dash to zoom out, or on the green arrows for adjacent maps.


METAR-TAF: